createdAt,value
2022-11-16T00:00:15.492Z,21.50
2022-11-16T00:02:45.032Z,22.42
2022-11-16T00:05:14.876Z,23.98
2022-11-16T00:07:44.427Z,17.50
2022-11-16T00:10:14.072Z,21.27
2022-11-16T00:12:44.927Z,23.35
2022-11-16T00:15:14.305Z,18.50
2022-11-16T00:17:43.753Z,20.05
2022-11-16T00:20:13.567Z,18.33
2022-11-16T00:22:44.225Z,19.38
2022-11-16T00:25:14.331Z,24.13
2022-11-16T00:27:45.184Z,19.23
2022-11-16T00:30:15.519Z,18.83
2022-11-16T00:32:45.300Z,17.80
2022-11-16T00:35:15.015Z,17.42
2022-11-16T00:37:45.246Z,21.40
2022-11-16T00:40:17.475Z,18.80
2022-11-16T00:42:48.344Z,20.27
2022-11-16T00:45:17.946Z,15.80
2022-11-16T00:47:47.383Z,18.30
2022-11-16T00:50:17.752Z,18.83
2022-11-16T00:52:47.358Z,17.30
2022-11-16T00:55:16.952Z,16.83
2022-11-16T00:57:48.108Z,18.77
2022-11-16T01:00:20.840Z,19.65
2022-11-16T01:02:52.472Z,15.90
2022-11-16T01:05:23.316Z,15.95
2022-11-16T01:07:54.262Z,16.73
2022-11-16T01:10:26.770Z,17.27
2022-11-16T01:12:56.932Z,15.70
2022-11-16T01:15:28.856Z,19.98
2022-11-16T01:17:58.632Z,17.15
2022-11-16T01:20:30.834Z,16.02
2022-11-16T01:23:00.414Z,17.83
2022-11-16T01:25:30.089Z,15.82
2022-11-16T01:28:00.850Z,14.63
2022-11-16T01:30:41.672Z,15.65
2022-11-16T01:33:12.486Z,13.70
2022-11-16T01:35:45.245Z,13.95
2022-11-16T01:38:17.237Z,13.00
2022-11-16T01:40:47.669Z,15.10
2022-11-16T01:43:24.743Z,14.77
2022-11-16T01:45:58.368Z,15.45
2022-11-16T01:48:31.834Z,14.70
2022-11-16T01:53:32.745Z,15.52
2022-11-16T01:56:02.441Z,12.73
2022-11-16T01:58:54.243Z,11.25
2022-11-16T02:01:27.554Z,18.05
2022-11-16T02:06:56.433Z,13.43
2022-11-16T02:09:55.614Z,14.15
2022-11-16T02:13:14.271Z,13.43
2022-11-16T02:16:01.743Z,17.60
2022-11-16T02:18:46.846Z,12.50
2022-11-16T02:21:38.588Z,12.32
2022-11-16T02:24:44.607Z,15.25
2022-11-16T02:28:05.884Z,11.68
2022-11-16T02:30:38.029Z,12.38
2022-11-16T02:33:14.898Z,15.40
2022-11-16T02:35:50.196Z,11.30
2022-11-16T02:38:25.611Z,13.10
2022-11-16T02:41:03.783Z,12.32
2022-11-16T02:43:39.807Z,13.65
2022-11-16T02:46:19.759Z,16.17
2022-11-16T02:48:55.136Z,12.20
2022-11-16T02:51:27.703Z,14.70
2022-11-16T02:54:05.670Z,14.05
2022-11-16T02:56:52.676Z,13.02
2022-11-16T02:59:32.126Z,14.50
2022-11-16T03:02:23.991Z,16.10
2022-11-16T03:05:00.904Z,15.90
2022-11-16T03:07:40.988Z,16.70
2022-11-16T03:10:11.516Z,16.90
2022-11-16T03:12:42.221Z,18.50
2022-11-16T03:15:14.254Z,14.57
2022-11-16T03:17:47.386Z,15.55
2022-11-16T03:22:55.496Z,18.27
2022-11-16T03:25:31.046Z,17.02
2022-11-16T03:28:10.251Z,16.40
2022-11-16T03:30:49.344Z,19.65
2022-11-16T03:33:27.065Z,13.68
2022-11-16T03:36:02.774Z,16.33
2022-11-16T03:38:37.528Z,18.67
2022-11-16T03:41:11.620Z,16.67
2022-11-16T03:43:43.886Z,16.73
2022-11-16T03:46:15.246Z,16.13
2022-11-16T03:48:46.100Z,15.40
2022-11-16T03:51:26.995Z,17.77
2022-11-16T03:53:57.426Z,20.67
2022-11-16T03:56:27.105Z,17.13
2022-11-16T03:58:56.600Z,19.70
2022-11-16T04:01:26.126Z,19.50
2022-11-16T04:03:57.361Z,18.17
2022-11-16T04:06:59.085Z,15.65
2022-11-16T04:09:46.615Z,15.25
2022-11-16T04:12:33.593Z,17.58
2022-11-16T04:15:20.394Z,17.30
2022-11-16T04:18:07.435Z,16.48
2022-11-16T04:20:55.281Z,14.82
2022-11-16T04:23:42.761Z,15.82
2022-11-16T04:26:13.148Z,17.85
2022-11-16T04:28:42.367Z,20.65
2022-11-16T04:31:32.004Z,17.23
2022-11-16T04:34:23.918Z,13.77
2022-11-16T04:37:15.111Z,17.50
2022-11-16T04:39:44.618Z,17.60
2022-11-16T04:42:17.177Z,17.13
2022-11-16T04:45:06.708Z,20.67
2022-11-16T04:47:43.068Z,15.90
2022-11-16T04:50:12.816Z,16.63
2022-11-16T04:52:45.216Z,17.80
2022-11-16T04:55:16.496Z,15.45
2022-11-16T04:57:48.021Z,17.10
2022-11-16T05:00:20.159Z,18.80
2022-11-16T05:02:50.181Z,16.13
2022-11-16T05:05:20.356Z,16.70
2022-11-16T05:07:52.650Z,17.95
2022-11-16T05:10:28.564Z,17.55
2022-11-16T05:12:59.121Z,17.05
2022-11-16T05:15:30.220Z,15.95
2022-11-16T05:18:01.608Z,16.75
2022-11-16T05:20:50.027Z,20.42
2022-11-16T05:23:38.161Z,17.30
2022-11-16T05:26:12.765Z,18.27
2022-11-16T05:28:42.243Z,15.63
2022-11-16T05:31:14.158Z,20.67
2022-11-16T05:33:44.356Z,14.95
2022-11-16T05:36:42.029Z,18.23
2022-11-16T05:39:13.306Z,20.48
2022-11-16T05:41:44.067Z,15.98
2022-11-16T05:44:14.196Z,16.88
2022-11-16T05:46:44.883Z,16.10
2022-11-16T05:49:16.429Z,13.25
2022-11-16T05:51:48.257Z,12.82
2022-11-16T05:54:26.102Z,12.80
2022-11-16T05:56:56.378Z,14.73
2022-11-16T05:59:27.712Z,12.23
2022-11-16T06:01:59.085Z,15.10
2022-11-16T06:04:29.142Z,13.95
2022-11-16T06:06:58.853Z,16.48
2022-11-16T06:09:34.340Z,11.98
2022-11-16T06:12:11.841Z,14.52
2022-11-16T06:14:41.415Z,13.52
2022-11-16T06:17:14.597Z,12.80
2022-11-16T06:19:44.640Z,12.13
2022-11-16T06:22:14.235Z,12.20
2022-11-16T06:24:45.275Z,11.85
2022-11-16T06:27:15.949Z,17.92
2022-11-16T06:29:47.405Z,12.32
2022-11-16T06:32:17.117Z,16.40
2022-11-16T06:34:46.586Z,13.88
2022-11-16T06:37:16.905Z,11.50
2022-11-16T06:39:47.900Z,12.77
2022-11-16T06:42:17.541Z,12.18
2022-11-16T06:44:47.348Z,15.20
2022-11-16T06:47:19.851Z,17.23
2022-11-16T06:49:49.397Z,14.52
2022-11-16T06:52:25.027Z,15.50
2022-11-16T06:54:55.959Z,14.45
2022-11-16T06:57:25.837Z,13.35
2022-11-16T06:59:55.400Z,12.75
2022-11-16T07:02:26.138Z,13.68
2022-11-16T07:05:00.654Z,13.68
2022-11-16T07:07:33.770Z,11.75
2022-11-16T07:10:07.293Z,13.77
2022-11-16T07:12:36.909Z,12.05
2022-11-16T07:15:10.749Z,15.25
2022-11-16T07:17:43.793Z,14.18
2022-11-16T07:20:13.312Z,13.73
2022-11-16T07:22:43.537Z,16.02
2022-11-16T07:25:17.548Z,15.90
2022-11-16T07:27:47.248Z,14.90
2022-11-16T07:30:18.787Z,16.27
2022-11-16T07:33:00.000Z,14.93
2022-11-16T07:35:49.401Z,18.23
2022-11-16T07:38:19.357Z,16.88
2022-11-16T07:40:50.309Z,17.20
2022-11-16T07:43:22.824Z,15.60
2022-11-16T07:49:11.083Z,17.17
2022-11-16T07:51:52.788Z,22.17
2022-11-16T07:54:37.953Z,18.02
2022-11-16T07:57:08.755Z,14.38
2022-11-16T07:59:38.245Z,16.30
2022-11-16T08:02:10.669Z,19.00
2022-11-16T08:04:42.215Z,20.60
2022-11-16T08:07:12.276Z,17.60
2022-11-16T08:09:49.966Z,18.33
2022-11-16T08:12:21.037Z,20.42
2022-11-16T08:14:50.585Z,15.65
2022-11-16T08:17:20.029Z,16.80
2022-11-16T08:19:50.428Z,16.33
2022-11-16T08:22:20.884Z,14.90
2022-11-16T08:24:50.744Z,14.02
2022-11-16T08:27:21.760Z,13.07
2022-11-16T08:29:56.100Z,13.70
2022-11-16T08:32:25.971Z,13.23
2022-11-16T08:34:56.797Z,14.60
2022-11-16T08:37:27.859Z,15.63
2022-11-16T08:39:57.525Z,12.82
2022-11-16T08:42:28.291Z,12.88
2022-11-16T08:44:57.742Z,13.93
2022-11-16T08:47:29.645Z,15.48
2022-11-16T08:50:01.364Z,11.43
2022-11-16T08:52:33.747Z,14.33
2022-11-16T08:55:04.501Z,12.70
2022-11-16T08:57:37.703Z,11.02
2022-11-16T09:00:13.458Z,11.27
2022-11-16T09:02:42.928Z,13.25
2022-11-16T09:05:12.979Z,11.85
2022-11-16T09:07:44.077Z,11.43
2022-11-16T09:10:14.352Z,9.98
2022-11-16T09:12:45.196Z,10.63
2022-11-16T09:15:14.658Z,11.38
2022-11-16T09:17:44.180Z,11.70
2022-11-16T09:20:13.682Z,16.27
2022-11-16T09:22:43.175Z,15.05
2022-11-16T09:25:12.759Z,11.02
2022-11-16T09:27:42.184Z,11.93
2022-11-16T09:30:14.810Z,10.10
2022-11-16T09:32:44.296Z,15.00
2022-11-16T09:35:13.841Z,14.80
2022-11-16T09:37:43.278Z,17.92
2022-11-16T09:40:13.601Z,15.05
2022-11-16T09:42:58.465Z,11.10
2022-11-16T09:45:41.025Z,11.73
2022-11-16T09:48:13.518Z,10.93
2022-11-16T09:50:51.877Z,11.65
2022-11-16T09:53:37.902Z,11.48
2022-11-16T09:56:13.748Z,12.18
2022-11-16T09:58:56.256Z,11.18
2022-11-16T10:01:32.395Z,11.40
2022-11-16T10:04:10.893Z,12.43
2022-11-16T10:06:53.207Z,12.70
2022-11-16T10:09:23.371Z,12.82
2022-11-16T10:12:09.627Z,10.43
2022-11-16T10:15:28.240Z,9.32
2022-11-16T10:18:16.350Z,10.07
2022-11-16T10:21:21.447Z,12.15
2022-11-16T10:24:14.519Z,9.88
2022-11-16T10:26:55.206Z,14.73
2022-11-16T10:29:45.185Z,11.43
2022-11-16T10:32:25.986Z,11.45
2022-11-16T10:35:09.323Z,10.65
2022-11-16T10:40:24.628Z,11.77
2022-11-16T10:43:05.868Z,12.35
2022-11-16T10:45:44.960Z,14.07
2022-11-16T10:48:36.947Z,11.00
2022-11-16T10:51:10.762Z,11.18
2022-11-16T10:53:44.183Z,14.73
2022-11-16T10:56:23.172Z,10.07
2022-11-16T10:58:59.363Z,11.35
2022-11-16T11:01:37.904Z,6.93
2022-11-16T11:04:24.487Z,9.10
2022-11-16T11:06:57.887Z,9.27
2022-11-16T11:09:31.848Z,10.60
2022-11-16T11:12:41.071Z,7.70
2022-11-16T11:15:27.103Z,8.82
2022-11-16T11:18:20.223Z,8.25
2022-11-16T11:20:54.206Z,7.70
2022-11-16T11:23:27.435Z,13.27
2022-11-16T11:26:03.892Z,9.30
2022-11-16T11:28:37.266Z,12.95
2022-11-16T11:31:22.512Z,8.05
2022-11-16T11:33:57.706Z,6.57
2022-11-16T11:36:40.493Z,9.23
2022-11-16T11:39:36.828Z,9.23
2022-11-16T11:42:26.816Z,6.97
2022-11-16T11:45:03.561Z,8.00
2022-11-16T11:47:58.484Z,7.85
2022-11-16T11:50:45.824Z,9.70
2022-11-16T11:53:47.138Z,6.75
2022-11-16T11:56:20.140Z,7.47
2022-11-16T12:02:16.016Z,5.60
2022-11-16T12:05:41.353Z,5.60
2022-11-16T12:08:35.282Z,11.82
2022-11-16T12:11:16.194Z,6.65
2022-11-16T12:14:08.375Z,5.45
2022-11-16T12:16:50.725Z,8.48
2022-11-16T12:20:09.146Z,6.18
2022-11-16T12:23:18.328Z,5.55
2022-11-16T12:25:56.547Z,8.18
2022-11-16T12:28:51.854Z,7.25
2022-11-16T12:32:03.919Z,7.97
2022-11-16T12:34:59.012Z,5.93
2022-11-16T12:37:39.994Z,4.30
2022-11-16T12:40:43.945Z,4.68
2022-11-16T12:43:22.603Z,4.80
2022-11-16T12:46:14.233Z,4.80
2022-11-16T12:49:41.189Z,4.10
2022-11-16T12:52:32.663Z,5.07
2022-11-16T12:55:26.946Z,5.00
2022-11-16T12:58:14.000Z,4.80
2022-11-16T13:01:07.502Z,4.90
2022-11-16T13:03:46.803Z,3.70
2022-11-16T13:06:21.344Z,3.60
2022-11-16T13:09:05.006Z,4.22
2022-11-16T13:11:40.602Z,5.28
2022-11-16T13:14:18.390Z,3.97
2022-11-16T13:16:51.392Z,3.03
2022-11-16T13:19:21.877Z,3.47
2022-11-16T13:22:03.209Z,2.25
2022-11-16T13:24:48.297Z,1.70
2022-11-16T13:27:35.350Z,2.10
2022-11-16T13:30:19.298Z,2.97
2022-11-16T13:33:13.888Z,4.53
2022-11-16T13:35:43.745Z,2.25
2022-11-16T13:38:14.632Z,6.10
2022-11-16T13:41:32.088Z,4.80
2022-11-16T13:44:02.241Z,4.13
2022-11-16T13:47:01.047Z,4.25
2022-11-16T13:49:36.832Z,5.57
2022-11-16T13:52:23.290Z,3.35
2022-11-16T13:54:56.898Z,9.15
2022-11-16T13:57:32.831Z,4.03
2022-11-16T14:00:24.895Z,5.75
2022-11-16T14:03:38.578Z,3.05
2022-11-16T14:07:01.286Z,7.45
2022-11-16T14:09:49.489Z,5.13
2022-11-16T14:12:59.225Z,3.70
2022-11-16T14:15:36.155Z,6.65
2022-11-16T14:18:37.353Z,4.53
2022-11-16T14:21:24.543Z,3.95
2022-11-16T14:24:19.104Z,8.27
2022-11-16T14:27:04.837Z,6.00
2022-11-16T14:29:54.580Z,7.65
2022-11-16T14:32:28.586Z,3.85
2022-11-16T14:35:02.551Z,4.05
2022-11-16T14:37:37.168Z,7.13
2022-11-16T14:40:17.488Z,3.78
2022-11-16T14:45:42.614Z,4.78
2022-11-16T14:48:22.557Z,3.17
2022-11-16T14:51:09.079Z,4.00
2022-11-16T14:53:47.010Z,6.07
2022-11-16T14:56:19.135Z,4.43
2022-11-16T14:58:58.403Z,3.08
2022-11-16T15:01:30.983Z,5.85
2022-11-16T15:04:06.043Z,5.82
2022-11-16T15:06:44.793Z,4.80
2022-11-16T15:09:25.737Z,4.47
2022-11-16T15:12:44.242Z,6.68
2022-11-16T15:15:19.727Z,5.60
2022-11-16T15:18:09.317Z,5.15
2022-11-16T15:20:49.372Z,4.32
2022-11-16T15:23:23.846Z,6.80
2022-11-16T15:25:59.353Z,4.70
2022-11-16T15:28:32.874Z,4.63
2022-11-16T15:31:06.171Z,7.50
2022-11-16T15:33:42.116Z,3.95
2022-11-16T15:36:41.884Z,3.10
2022-11-16T15:39:17.870Z,4.57
2022-11-16T15:41:48.251Z,5.47
2022-11-16T15:44:21.387Z,6.88
2022-11-16T15:49:31.295Z,5.30
2022-11-16T15:52:02.057Z,6.75
2022-11-16T15:55:00.067Z,5.07
2022-11-16T15:57:29.883Z,4.60
2022-11-16T15:59:59.621Z,6.47
2022-11-16T16:02:31.798Z,8.57
2022-11-16T16:05:01.276Z,6.97
2022-11-16T16:07:39.057Z,6.60
2022-11-16T16:10:26.597Z,8.73
2022-11-16T16:12:58.085Z,7.65
2022-11-16T16:15:33.713Z,9.32
2022-11-16T16:18:11.536Z,6.55
2022-11-16T16:20:41.098Z,5.60
2022-11-16T16:23:15.794Z,6.05
2022-11-16T16:25:50.594Z,8.73
2022-11-16T16:28:20.245Z,6.43
2022-11-16T16:31:15.448Z,7.30
2022-11-16T16:33:44.868Z,7.50
2022-11-16T16:36:15.304Z,4.72
2022-11-16T16:38:44.813Z,4.57
2022-11-16T16:41:24.201Z,6.63
2022-11-16T16:43:54.495Z,4.35
2022-11-16T16:47:45.557Z,6.13
2022-11-16T16:50:15.303Z,6.45
2022-11-16T16:52:45.622Z,6.25
2022-11-16T16:55:15.410Z,9.75
2022-11-16T16:57:46.325Z,13.07
2022-11-16T17:00:18.165Z,10.05
